Time;durP1;ratioP1;P1;durP2;ratioP2;P2;SDS_P1;SDS_P2;PMS_P1;PMS_P2;Temp;Humidity;BMP_temperature;BMP_pressure;BME280_temperature;BME280_humidity;BME280_pressure;Samples;Min_cycle;Max_cycle;Signal;HPM_P1;HPM_P2
2021/04/05 00:02:15;;;;;;;10.27;5.47;;;;;;;0.43;94.21;100212.38;5007371;28;20291;-71
2021/04/05 00:04:41;;;;;;;10.47;5.37;;;;;;;0.44;94.52;100209.84;5008519;28;20287;-71
2021/04/05 00:07:10;;;;;;;10.87;6.13;;;;;;;0.44;95.18;100211.53;5008471;28;20215;-71
2021/04/05 00:09:36;;;;;;;10.33;5.70;;;;;;;0.40;94.77;100202.94;5009828;28;20221;-71
2021/04/05 00:12:02;;;;;;;10.87;5.87;;;;;;;0.43;95.39;100202.13;5009948;28;20228;-71
2021/04/05 00:14:29;;;;;;;10.73;5.17;;;;;;;0.42;95.15;100193.53;5010586;28;20185;-71
2021/04/05 00:16:55;;;;;;;11.33;6.43;;;;;;;0.44;95.07;100191.88;5013547;28;20741;-71
2021/04/05 00:19:21;;;;;;;10.40;6.43;;;;;;;0.38;94.87;100190.09;5015421;28;20213;-71
2021/04/05 00:21:47;;;;;;;10.97;6.13;;;;;;;0.40;94.90;100185.00;5015989;28;20199;-71
2021/04/05 00:24:14;;;;;;;14.90;5.83;;;;;;;0.41;95.12;100189.28;5015576;28;20496;-71
2021/04/05 00:26:40;;;;;;;11.73;6.27;;;;;;;0.38;95.16;100179.00;5010974;28;20201;-71
2021/04/05 00:29:06;;;;;;;9.40;6.13;;;;;;;0.40;95.64;100169.59;5007194;28;20220;-71
2021/04/05 00:31:32;;;;;;;11.90;6.00;;;;;;;0.38;95.86;100154.19;5012544;28;20200;-71
2021/04/05 00:33:58;;;;;;;15.80;6.80;;;;;;;0.35;95.31;100150.75;4999353;28;20331;-71
2021/04/05 00:36:24;;;;;;;11.70;5.90;;;;;;;0.40;96.27;100138.81;5012048;28;20686;-71
2021/04/05 00:38:50;;;;;;;11.67;6.40;;;;;;;0.36;95.57;100137.94;5004458;28;20216;-71
2021/04/05 00:41:17;;;;;;;15.17;6.97;;;;;;;0.37;95.46;100126.84;5009493;28;20761;-71
2021/04/05 00:43:46;;;;;;;13.10;6.27;;;;;;;0.37;95.81;100118.31;5009450;28;20185;-71
2021/04/05 00:46:13;;;;;;;10.70;6.27;;;;;;;0.39;95.47;100119.16;5006840;28;20204;-71
2021/04/05 00:48:40;;;;;;;10.03;6.70;;;;;;;0.40;95.40;100108.03;5010048;28;20216;-71
2021/04/05 00:51:10;;;;;;;14.40;6.67;;;;;;;0.40;95.46;100097.78;5008522;28;20200;-71
2021/04/05 00:53:38;;;;;;;16.80;6.03;;;;;;;0.41;95.88;100091.81;5012545;28;20200;-71
2021/04/05 00:56:04;;;;;;;13.20;5.90;;;;;;;0.37;95.57;100090.94;5005544;28;20236;-71
2021/04/05 00:58:32;;;;;;;15.00;6.73;;;;;;;0.35;95.63;100082.38;5007422;28;20228;-71
2021/04/05 01:01:00;;;;;;;10.73;6.10;;;;;;;0.35;95.86;100076.38;5010153;28;20688;-71
2021/04/05 01:03:28;;;;;;;9.47;6.13;;;;;;;0.36;96.13;100078.09;5002554;28;20196;-71
2021/04/05 01:05:57;;;;;;;10.07;6.23;;;;;;;0.33;95.89;100067.81;4999433;28;20226;-71
2021/04/05 01:08:23;;;;;;;11.80;5.90;;;;;;;0.32;96.21;100064.41;5003405;28;20898;-71
2021/04/05 01:10:50;;;;;;;13.27;6.13;;;;;;;0.31;96.26;100061.81;5000647;28;20269;-71
2021/04/05 01:13:18;;;;;;;11.33;6.30;;;;;;;0.34;97.00;100041.34;5009278;28;20719;-71
2021/04/05 01:15:45;;;;;;;10.20;6.47;;;;;;;0.30;96.72;100029.31;5014446;28;20317;-71
2021/04/05 01:18:12;;;;;;;11.93;6.37;;;;;;;0.29;96.73;100015.66;5009700;28;20425;-71
2021/04/05 01:20:38;;;;;;;13.00;6.83;;;;;;;0.30;96.39;99998.53;5011283;28;20626;-71
2021/04/05 01:23:05;;;;;;;15.03;6.63;;;;;;;0.28;96.44;99990.00;5009430;28;20240;-71
2021/04/05 01:25:32;;;;;;;12.83;6.67;;;;;;;0.29;96.60;99994.28;5012010;28;20308;-71
2021/04/05 01:27:59;;;;;;;11.50;6.13;;;;;;;0.31;96.80;99993.44;5017261;28;20227;-71
2021/04/05 01:30:31;;;;;;;10.00;5.80;;;;;;;0.28;96.41;99987.44;5011140;28;20231;-71
2021/04/05 01:33:02;;;;;;;11.57;6.03;;;;;;;0.32;96.79;99989.19;5012619;28;20274;-71
2021/04/05 01:35:29;;;;;;;14.10;6.20;;;;;;;0.28;96.88;99984.84;5011122;28;20205;-71
2021/04/05 01:37:55;;;;;;;9.43;5.80;;;;;;;0.33;97.50;99967.78;5014053;28;20269;-71
2021/04/05 01:40:22;;;;;;;13.43;7.07;;;;;;;0.31;96.96;99964.38;5013853;28;20244;-71
2021/04/05 01:42:48;;;;;;;14.83;6.17;;;;;;;0.33;96.87;99975.50;5014206;28;20201;-71
2021/04/05 01:45:17;;;;;;;11.30;5.67;;;;;;;0.32;97.14;99969.50;5014122;28;20247;-71
2021/04/05 01:47:43;;;;;;;11.30;6.10;;;;;;;0.35;97.22;99958.41;5010529;28;20258;-71
2021/04/05 01:50:11;;;;;;;12.13;6.30;;;;;;;0.38;97.11;99948.16;5014825;28;20235;-71
2021/04/05 01:52:39;;;;;;;12.17;6.60;;;;;;;0.36;97.03;99940.44;5009304;28;20303;-71
2021/04/05 01:55:07;;;;;;;11.40;6.37;;;;;;;0.40;97.35;99937.91;5014077;28;20235;-71
2021/04/05 01:57:33;;;;;;;14.00;6.53;;;;;;;0.40;96.76;99928.50;5007893;28;20220;-71
2021/04/05 02:00:00;;;;;;;12.23;6.90;;;;;;;0.44;96.90;99925.13;5008701;28;20224;-71
2021/04/05 02:02:28;;;;;;;16.10;7.03;;;;;;;0.46;96.79;99917.41;5009820;28;20255;-71
2021/04/05 02:04:55;;;;;;;10.10;6.20;;;;;;;0.46;96.79;99918.28;5015073;28;20681;-71
2021/04/05 02:07:21;;;;;;;13.80;6.40;;;;;;;0.45;96.55;99901.16;5008471;28;20201;-71
2021/04/05 02:09:47;;;;;;;13.77;6.17;;;;;;;0.48;96.36;99890.91;5010736;28;20220;-71
2021/04/05 02:16:03;;;;;;;16.70;6.37;;;;;;;0.51;96.19;99870.41;5008421;28;20224;-71
2021/04/05 02:18:29;;;;;;;13.43;7.00;;;;;;;0.54;95.54;99872.13;5010711;28;20312;-71
2021/04/05 02:20:56;;;;;;;9.97;6.00;;;;;;;0.58;96.10;99853.31;5009195;28;20291;-71
2021/04/05 02:23:25;;;;;;;14.00;7.03;;;;;;;0.57;95.26;99847.31;5014830;28;20192;-71
2021/04/05 02:26:08;;;;;;;15.50;7.17;;;;;;;0.60;95.24;99832.78;5007778;28;20205;-71
2021/04/05 02:28:38;;;;;;;13.93;6.83;;;;;;;0.62;95.23;99831.09;5007831;28;20267;-71
2021/04/05 02:31:06;;;;;;;13.27;7.17;;;;;;;0.63;95.22;99833.66;5004568;28;20284;-71
2021/04/05 02:33:36;;;;;;;14.07;6.50;;;;;;;0.66;95.07;99825.13;5009738;28;20794;-71
2021/04/05 02:36:02;;;;;;;12.20;6.13;;;;;;;0.68;94.88;99824.25;5005644;28;20205;-71
2021/04/05 02:38:28;;;;;;;15.53;6.87;;;;;;;0.71;95.57;99821.69;5010625;28;20589;-71
2021/04/05 02:40:54;;;;;;;13.67;6.80;;;;;;;0.72;94.71;99807.16;5013181;28;20196;-71
2021/04/05 02:43:21;;;;;;;12.80;6.53;;;;;;;0.76;94.91;99801.19;5007243;28;20208;-71
2021/04/05 02:45:47;;;;;;;14.43;6.53;;;;;;;0.77;94.56;99791.75;5010595;28;20673;-71
2021/04/05 02:48:15;;;;;;;14.13;6.73;;;;;;;0.81;93.86;99780.63;5009223;28;20197;-71
2021/04/05 02:50:41;;;;;;;12.03;6.17;;;;;;;0.85;94.39;99780.66;5013325;28;20223;-71
2021/04/05 02:53:09;;;;;;;13.60;6.60;;;;;;;0.83;93.47;99773.81;5011536;28;20212;-71
2021/04/05 02:55:36;;;;;;;11.77;6.57;;;;;;;0.84;93.35;99772.94;5008944;28;20209;-71
2021/04/05 02:58:05;;;;;;;10.93;6.33;;;;;;;0.83;93.05;99766.13;5014343;28;20665;-71
2021/04/05 03:00:32;;;;;;;10.90;6.20;;;;;;;0.85;92.72;99762.69;5008560;28;20232;-71
2021/04/05 03:02:58;;;;;;;10.73;5.97;;;;;;;0.87;93.27;99760.13;5013651;28;20189;-71
2021/04/05 03:05:27;;;;;;;9.03;5.97;;;;;;;0.84;92.70;99747.28;5010904;28;20216;-71
2021/04/05 03:07:53;;;;;;;11.97;6.60;;;;;;;0.83;93.08;99738.72;5014745;28;20575;-71
2021/04/05 03:10:22;;;;;;;10.67;6.47;;;;;;;0.83;93.08;99725.91;5012233;28;20285;-71
2021/04/05 03:12:51;;;;;;;13.50;5.77;;;;;;;0.84;92.75;99719.91;5010833;28;20657;-71
2021/04/05 03:15:18;;;;;;;12.23;5.47;;;;;;;0.83;92.79;99713.06;5010647;28;20194;-71
2021/04/05 03:17:44;;;;;;;15.03;6.20;;;;;;;0.82;92.96;99698.50;5008005;28;20228;-71
2021/04/05 03:20:15;;;;;;;12.80;6.10;;;;;;;0.83;92.78;99684.84;4992564;28;20689;-71
2021/04/05 03:22:44;;;;;;;11.03;5.90;;;;;;;0.83;92.49;99689.13;5010029;28;20596;-71
2021/04/05 03:25:16;;;;;;;15.90;5.83;;;;;;;0.82;92.20;99672.84;5012512;28;20272;-71
2021/04/05 03:27:43;;;;;;;13.73;6.50;;;;;;;0.86;92.47;99661.75;5002244;28;20205;-71
2021/04/05 03:30:12;;;;;;;11.60;5.77;;;;;;;0.85;92.20;99656.63;5010593;28;20224;-71
2021/04/05 03:32:42;;;;;;;13.37;6.50;;;;;;;0.87;92.56;99642.91;5009244;28;20201;-71
2021/04/05 03:35:12;;;;;;;11.47;6.07;;;;;;;0.88;91.81;99647.19;5028719;28;20282;-71
2021/04/05 03:37:41;;;;;;;13.13;6.17;;;;;;;0.91;92.69;99646.31;5014789;28;20681;-71
2021/04/05 03:40:09;;;;;;;12.33;6.03;;;;;;;0.91;92.73;99638.63;5008079;28;20235;-71
2021/04/05 03:42:41;;;;;;;13.43;6.27;;;;;;;0.90;92.80;99645.47;4996032;28;20200;-71
2021/04/05 03:45:17;;;;;;;11.50;6.13;;;;;;;0.87;91.96;99642.91;5006126;28;20680;-71
2021/04/05 03:47:50;;;;;;;11.53;6.50;;;;;;;0.92;93.45;99623.22;4988254;28;20193;-71
2021/04/05 03:50:19;;;;;;;10.80;6.23;;;;;;;0.90;92.69;99617.22;5009034;28;20612;-71
2021/04/05 03:52:50;;;;;;;11.17;5.53;;;;;;;0.90;92.50;99624.94;4990793;28;20200;-71
2021/04/05 03:55:21;;;;;;;10.50;6.60;;;;;;;0.93;92.58;99612.09;5007972;28;20287;-71
2021/04/05 03:57:49;;;;;;;13.63;6.17;;;;;;;0.97;92.39;99614.63;5011705;28;20244;-71
2021/04/05 04:00:20;;;;;;;9.93;5.63;;;;;;;1.03;93.53;99612.06;5010145;28;20213;-71
2021/04/05 04:02:50;;;;;;;8.83;5.73;;;;;;;1.02;92.62;99613.78;5008321;28;20207;-71
2021/04/05 04:05:22;;;;;;;9.43;5.03;;;;;;;1.06;92.13;99601.78;5009950;28;20217;-71
2021/04/05 04:07:54;;;;;;;10.93;5.90;;;;;;;1.12;92.62;99596.63;5007443;28;20760;-71
2021/04/05 04:10:25;;;;;;;12.17;5.97;;;;;;;1.12;92.21;99596.63;5011245;28;20625;-71
2021/04/05 04:12:54;;;;;;;10.47;5.47;;;;;;;1.13;92.45;99582.94;5007818;28;20218;-71
2021/04/05 04:15:21;;;;;;;12.43;6.20;;;;;;;1.14;91.91;99569.22;5014175;28;20202;-71
2021/04/05 04:17:48;;;;;;;12.63;5.70;;;;;;;1.19;91.89;99566.63;5008073;28;20300;-71
2021/04/05 04:20:16;;;;;;;14.70;6.07;;;;;;;1.20;91.17;99569.19;5011838;28;20239;-71
2021/04/05 04:22:44;;;;;;;14.50;5.63;;;;;;;1.27;91.02;99565.75;5008608;28;20211;-71
2021/04/05 04:25:11;;;;;;;14.67;5.83;;;;;;;1.33;90.47;99562.28;5006897;28;20978;-71
2021/04/05 04:27:38;;;;;;;14.37;5.73;;;;;;;1.41;89.79;99560.53;5005647;28;20657;-71
2021/04/05 04:30:06;;;;;;;12.10;5.70;;;;;;;1.48;89.35;99558.78;5002842;28;20213;-71
2021/04/05 04:32:33;;;;;;;11.47;5.80;;;;;;;1.54;89.50;99553.59;5006968;28;20196;-71
2021/04/05 04:35:00;;;;;;;8.83;5.03;;;;;;;1.60;89.36;99529.56;5009801;28;20200;-71
2021/04/05 04:37:26;;;;;;;12.13;5.83;;;;;;;1.60;88.72;99520.16;5005252;28;20748;-71
2021/04/05 04:39:52;;;;;;;10.50;5.20;;;;;;;1.70;88.33;99516.63;5013986;28;20301;-71
2021/04/05 04:42:19;;;;;;;16.47;5.63;;;;;;;1.77;88.12;99508.91;5009317;28;20200;-71
2021/04/05 04:44:45;;;;;;;10.27;5.13;;;;;;;1.84;88.19;99508.81;5008982;28;20273;-71
2021/04/05 04:47:12;;;;;;;13.93;5.33;;;;;;;1.91;87.88;99509.63;5003457;28;20230;-71
2021/04/05 04:49:38;;;;;;;15.00;6.23;;;;;;;1.97;87.51;99513.84;5010379;28;20655;-71
2021/04/05 04:52:05;;;;;;;13.57;5.73;;;;;;;2.02;87.26;99514.66;5006071;28;20211;-71
2021/04/05 04:54:31;;;;;;;12.63;5.57;;;;;;;2.11;86.46;99516.31;5010291;28;20224;-71
2021/04/05 04:56:57;;;;;;;19.03;5.80;;;;;;;2.20;86.17;99506.78;5011726;28;20261;-71
2021/04/05 04:59:24;;;;;;;13.70;5.80;;;;;;;2.30;84.96;99494.69;5006299;28;20866;-71
2021/04/05 05:01:52;;;;;;;13.37;5.27;;;;;;;2.34;85.05;99486.09;5010307;28;20288;-71
2021/04/05 05:04:22;;;;;;;11.27;5.40;;;;;;;2.45;84.10;99480.81;5003170;28;20201;-71
2021/04/05 05:06:52;;;;;;;12.80;6.03;;;;;;;2.51;84.25;99497.91;5009482;28;20264;-71
2021/04/05 05:09:19;;;;;;;13.27;5.83;;;;;;;2.51;84.47;99491.03;5003042;28;20221;-71
2021/04/05 05:11:46;;;;;;;12.67;5.90;;;;;;;2.54;84.30;99492.72;5011924;28;20774;-71
2021/04/05 05:14:13;;;;;;;10.50;5.77;;;;;;;2.57;84.23;99487.50;5005955;28;20573;-71
2021/04/05 05:16:40;;;;;;;10.83;5.30;;;;;;;2.65;83.36;99496.00;5011324;28;20203;-71
2021/04/05 05:19:06;;;;;;;15.67;6.20;;;;;;;2.78;82.43;99496.69;5005759;28;20220;-71
2021/04/05 05:21:36;;;;;;;11.60;5.47;;;;;;;2.84;81.96;99489.75;5005352;28;20200;-71
2021/04/05 05:24:05;;;;;;;13.50;5.60;;;;;;;2.89;81.71;99473.44;5003121;28;20226;-71
2021/04/05 05:26:33;;;;;;;15.70;5.30;;;;;;;2.91;81.84;99461.38;5005291;28;20749;-71
2021/04/05 05:29:04;;;;;;;15.07;6.00;;;;;;;2.93;81.93;99465.63;5006546;28;20638;-71
2021/04/05 05:31:30;;;;;;;12.43;5.70;;;;;;;2.99;81.11;99457.81;5009659;28;20259;-71
2021/04/05 05:33:56;;;;;;;12.10;5.50;;;;;;;3.07;80.72;99460.28;5005453;28;20616;-71
2021/04/05 05:36:23;;;;;;;12.07;6.17;;;;;;;3.16;80.26;99446.44;5011081;28;20431;-71
2021/04/05 05:38:49;;;;;;;12.87;5.70;;;;;;;3.21;79.44;99442.91;5005763;28;20306;-71
2021/04/05 05:41:24;;;;;;;13.80;5.90;;;;;;;3.31;78.85;99438.47;5008661;28;20204;-71
2021/04/05 05:43:55;;;;;;;13.93;5.70;;;;;;;3.40;78.23;99443.47;5003434;28;20210;-71
2021/04/05 05:46:32;;;;;;;13.37;5.30;;;;;;;3.50;77.71;99443.31;5006118;28;20208;-71
2021/04/05 05:49:11;;;;;;;16.80;5.70;;;;;;;3.58;76.76;99437.16;5006843;28;20282;-71
2021/04/05 05:51:51;;;;;;;13.77;6.20;;;;;;;3.64;77.32;99425.06;5008037;28;20204;-71
2021/04/05 05:54:26;;;;;;;19.00;6.23;;;;;;;3.71;77.07;99426.66;5000620;28;20197;-71
2021/04/05 05:56:57;;;;;;;11.37;5.37;;;;;;;3.78;76.96;99423.09;5007022;28;20212;-71
2021/04/05 05:59:29;;;;;;;12.07;5.67;;;;;;;3.90;75.72;99425.44;5009349;28;20577;-71
2021/04/05 06:02:11;;;;;;;12.53;5.67;;;;;;;4.00;75.05;99426.16;5002480;28;20282;-71
2021/04/05 06:04:57;;;;;;;10.40;5.53;;;;;;;4.09;75.71;99419.97;5007621;28;20205;-71
2021/04/05 06:07:32;;;;;;;10.53;5.60;;;;;;;4.18;73.83;99417.19;5007604;28;20579;-71
2021/04/05 06:10:07;;;;;;;11.47;5.57;;;;;;;4.24;74.63;99409.34;5008907;28;20221;-71
2021/04/05 06:12:42;;;;;;;15.17;6.00;;;;;;;4.33;73.43;99406.59;5006885;28;20292;-71
2021/04/05 06:15:17;;;;;;;13.17;5.47;;;;;;;4.45;73.14;99410.66;5018532;28;20220;-71
2021/04/05 06:18:17;;;;;;;10.77;5.23;;;;;;;4.58;72.75;99400.91;4988929;28;20208;-71
2021/04/05 06:20:51;;;;;;;15.03;6.60;;;;;;;4.70;72.11;99405.81;5015978;28;20571;-71
2021/04/05 06:23:38;;;;;;;14.17;6.57;;;;;;;4.83;72.16;99395.22;4971090;28;20234;-71
2021/04/05 06:26:14;;;;;;;15.77;6.50;;;;;;;4.91;72.28;99398.50;4970909;28;20633;-71
2021/04/05 06:28:49;;;;;;;10.87;5.80;;;;;;;4.93;71.57;99394.97;4962950;28;20305;-71
2021/04/05 06:31:33;;;;;;;13.07;6.30;;;;;;;4.94;71.17;99390.66;4973637;28;20201;-71
2021/04/05 06:34:10;;;;;;;11.73;5.67;;;;;;;4.95;70.58;99394.94;4964785;28;20259;-71
2021/04/05 06:36:44;;;;;;;13.90;6.33;;;;;;;4.96;71.38;99375.13;4973046;28;20229;-71
2021/04/05 06:39:18;;;;;;;13.17;5.20;;;;;;;4.97;71.46;99371.66;4967101;28;20638;-71
2021/04/05 06:42:09;;;;;;;15.40;5.60;;;;;;;5.00;70.80;99380.19;4969620;28;20194;-71
2021/04/05 06:45:16;;;;;;;14.17;6.07;;;;;;;5.07;70.95;99381.75;4966013;28;20198;-71
2021/04/05 06:48:00;;;;;;;12.43;5.70;;;;;;;5.13;70.47;99362.66;4971192;28;20197;-71
2021/04/05 06:50:31;;;;;;;11.67;5.70;;;;;;;5.23;69.96;99351.22;4965798;28;20217;-71
2021/04/05 06:53:29;;;;;;;12.37;5.93;;;;;;;5.30;70.07;99337.25;4967812;28;20360;-71
2021/04/05 06:55:57;;;;;;;12.90;5.77;;;;;;;5.39;70.28;99331.00;4963059;28;20246;-71
2021/04/05 06:58:44;;;;;;;15.03;6.00;;;;;;;5.43;69.56;99335.19;4965615;28;20213;-71
2021/04/05 07:01:24;;;;;;;14.03;6.10;;;;;;;5.49;69.48;99311.78;4964415;28;20209;-71
2021/04/05 07:04:16;;;;;;;12.27;6.00;;;;;;;5.56;69.05;99322.81;4967593;28;20201;-71
2021/04/05 07:06:50;;;;;;;14.93;6.43;;;;;;;5.60;68.11;99321.84;4963304;28;20213;-71
2021/04/05 07:09:25;;;;;;;16.77;6.73;;;;;;;5.62;68.58;99304.53;4962693;28;20224;-71
2021/04/05 07:12:24;;;;;;;13.30;5.73;;;;;;;5.72;68.06;99306.88;4970289;28;20219;-71
2021/04/05 07:15:04;;;;;;;14.17;6.63;;;;;;;5.78;68.25;99280.84;4957023;28;20198;-71
2021/04/05 07:17:39;;;;;;;13.57;6.53;;;;;;;5.82;68.53;99272.13;4966955;28;20206;-71
2021/04/05 07:20:15;;;;;;;14.47;6.57;;;;;;;5.88;68.58;99279.72;4958028;28;20685;-71
2021/04/05 07:22:53;;;;;;;14.10;6.87;;;;;;;5.97;68.23;99260.53;4970110;28;20603;-71
2021/04/05 07:25:24;;;;;;;16.70;7.00;;;;;;;6.03;67.22;99253.44;4957799;28;20577;-71
2021/04/05 07:28:00;;;;;;;14.03;7.47;;;;;;;6.09;66.34;99254.16;4956845;28;20206;-71
2021/04/05 07:30:32;;;;;;;13.67;6.67;;;;;;;6.21;67.30;99259.81;4961432;28;20865;-71
2021/04/05 07:33:10;;;;;;;13.13;7.23;;;;;;;6.36;67.25;99262.81;4975229;28;20266;-71
2021/04/05 07:35:40;;;;;;;15.60;7.10;;;;;;;6.40;66.77;99241.09;4971287;28;20205;-71
2021/04/05 07:38:15;;;;;;;15.83;6.83;;;;;;;6.49;66.93;99240.84;4965586;28;20232;-71
2021/04/05 07:40:50;;;;;;;16.90;7.30;;;;;;;6.60;66.06;99228.38;4972899;28;20962;-71
2021/04/05 07:43:29;;;;;;;15.50;8.13;;;;;;;6.66;65.73;99231.69;4964160;28;20201;-71
2021/04/05 07:46:06;;;;;;;11.77;7.43;;;;;;;6.79;66.15;99226.06;4969163;28;20238;-71
2021/04/05 07:48:36;;;;;;;16.37;7.33;;;;;;;6.93;65.01;99225.59;4962589;28;20229;-72
2021/04/05 07:51:08;;;;;;;16.67;7.73;;;;;;;7.12;65.68;99212.00;4970282;28;20210;-71
2021/04/05 07:53:41;;;;;;;14.50;7.30;;;;;;;7.21;65.03;99203.91;4963712;28;21395;-71
2021/04/05 07:56:15;;;;;;;15.30;7.80;;;;;;;7.24;64.36;99200.38;4969476;28;20281;-71
2021/04/05 07:59:03;;;;;;;14.50;7.60;;;;;;;7.34;64.67;99194.81;4966262;28;20233;-71
2021/04/05 08:01:40;;;;;;;12.53;7.03;;;;;;;7.50;63.61;99208.06;4960322;28;20197;-71
2021/04/05 08:04:11;;;;;;;16.70;8.20;;;;;;;7.59;62.87;99199.94;4957201;28;20201;-71
2021/04/05 08:06:49;;;;;;;19.43;8.10;;;;;;;7.84;62.92;99195.59;4966111;28;20229;-71
2021/04/05 08:09:18;;;;;;;17.57;8.27;;;;;;;7.92;62.45;99191.81;4945693;28;20383;-71
2021/04/05 08:12:00;;;;;;;17.07;8.63;;;;;;;7.94;61.67;99190.00;4954997;28;20288;-72
2021/04/05 08:14:43;;;;;;;17.63;7.80;;;;;;;8.07;62.69;99166.16;4968075;28;20211;-71
2021/04/05 08:17:21;;;;;;;16.63;8.53;;;;;;;8.11;61.36;99166.00;4946378;28;20212;-71
2021/04/05 08:19:56;;;;;;;15.53;8.03;;;;;;;8.21;61.54;99168.22;4966239;28;20619;-71
2021/04/05 08:22:35;;;;;;;14.70;8.00;;;;;;;8.15;62.03;99172.75;4950008;28;20208;-71
2021/04/05 08:25:21;;;;;;;13.20;7.00;;;;;;;8.26;61.94;99161.94;4967493;28;20193;-71
2021/04/05 08:27:52;;;;;;;15.27;8.23;;;;;;;8.40;61.83;99161.38;4962816;28;20210;-71
2021/04/05 08:30:23;;;;;;;14.73;8.13;;;;;;;8.41;60.99;99157.88;4973931;28;20222;-71
2021/04/05 08:33:02;;;;;;;16.10;7.90;;;;;;;8.39;61.53;99143.25;4947871;28;20682;-71
2021/04/05 08:35:38;;;;;;;14.77;8.37;;;;;;;8.39;61.46;99135.47;4965414;28;20230;-72
2021/04/05 08:38:12;;;;;;;13.77;8.03;;;;;;;8.33;61.12;99163.38;4957042;28;20302;-71
2021/04/05 08:40:44;;;;;;;22.77;10.70;;;;;;;8.30;61.28;99158.31;4967045;28;20202;-71
2021/04/05 08:43:22;;;;;;;23.33;12.53;;;;;;;8.33;62.37;99162.53;4963043;28;20578;-72
2021/04/05 08:45:53;;;;;;;21.67;9.47;;;;;;;8.15;61.69;99162.38;4969321;28;20434;-71
2021/04/05 08:48:21;;;;;;;16.77;8.43;;;;;;;8.00;61.95;99149.13;4958985;28;20690;-72
2021/04/05 08:50:51;;;;;;;18.43;9.33;;;;;;;8.01;62.94;99153.44;4962029;28;20195;-71
2021/04/05 08:53:19;;;;;;;18.37;9.63;;;;;;;7.90;62.90;99143.47;4960001;28;20651;-71
2021/04/05 08:55:46;;;;;;;15.73;8.60;;;;;;;7.81;62.75;99133.44;4962775;28;20207;-71
2021/04/05 08:58:23;;;;;;;15.50;8.73;;;;;;;7.80;64.13;99134.34;4972915;28;20235;-72
2021/04/05 09:00:52;;;;;;;17.10;8.63;;;;;;;7.82;63.47;99156.72;4959198;28;20201;-71
2021/04/05 09:03:22;;;;;;;12.80;8.90;;;;;;;7.77;63.73;99149.13;4973318;28;20278;-71
2021/04/05 09:05:51;;;;;;;14.50;8.93;;;;;;;7.75;64.24;99160.47;4963250;28;20267;-71
2021/04/05 09:08:21;;;;;;;15.97;8.40;;;;;;;7.69;63.86;99161.53;4964144;28;20298;-71
2021/04/05 09:10:50;;;;;;;18.03;10.23;;;;;;;7.69;63.66;99158.13;4971554;28;20295;-71
2021/04/05 09:13:19;;;;;;;16.23;9.43;;;;;;;7.73;64.02;99149.31;4964803;28;20206;-71
2021/04/05 09:16:30;;;;;;;17.77;9.00;;;;;;;7.68;63.45;99143.44;4969537;28;20210;-71
2021/04/05 09:19:18;;;;;;;18.33;8.43;;;;;;;7.70;63.50;99133.84;4962005;28;20229;-71
2021/04/05 09:22:09;;;;;;;20.27;9.30;;;;;;;7.70;63.65;99134.69;4972218;28;20273;-71
2021/04/05 09:25:26;;;;;;;17.67;8.77;;;;;;;7.66;63.82;99120.16;4964345;28;20663;-71
2021/04/05 09:28:02;;;;;;;15.67;8.27;;;;;;;7.62;64.73;99112.56;4878249;29;20693;-71
2021/04/05 09:30:44;;;;;;;16.67;8.63;;;;;;;7.53;64.98;99117.19;4964847;28;20856;-72
2021/04/05 09:33:49;;;;;;;16.20;9.07;;;;;;;7.51;66.60;99119.00;4965674;28;20205;-72
2021/04/05 09:36:43;;;;;;;17.63;8.67;;;;;;;7.48;68.34;99113.06;4947531;28;20280;-71
2021/04/05 09:39:35;;;;;;;14.80;8.73;;;;;;;7.18;70.55;99108.94;4964280;28;20365;-71
2021/04/05 09:42:32;;;;;;;14.03;8.37;;;;;;;6.92;72.74;99104.69;4954022;28;20237;-71
2021/04/05 09:45:10;;;;;;;17.43;9.27;;;;;;;6.78;73.74;99112.13;4966789;28;20198;-71
2021/04/05 09:48:14;;;;;;;13.03;8.33;;;;;;;6.60;75.54;99117.03;4970245;28;20209;-71
2021/04/05 09:50:56;;;;;;;15.30;8.53;;;;;;;6.39;77.31;99115.16;4965161;28;20240;-72
2021/04/05 09:53:39;;;;;;;17.67;9.37;;;;;;;6.28;79.83;99110.34;4968670;28;20202;-71
2021/04/05 09:56:09;;;;;;;22.40;9.60;;;;;;;6.09;80.98;99099.72;4950615;28;20210;-71
2021/04/05 09:58:40;;;;;;;19.90;9.50;;;;;;;6.01;82.67;99097.38;4969328;28;20248;-71
2021/04/05 10:01:10;;;;;;;17.53;9.10;;;;;;;5.91;83.96;99090.78;4979234;28;20749;-71
2021/04/05 10:03:42;;;;;;;19.10;10.13;;;;;;;5.90;86.90;99099.44;4967060;28;20268;-71
2021/04/05 10:06:11;;;;;;;17.67;9.50;;;;;;;5.88;86.89;99090.88;4960623;28;20679;-71
2021/04/05 10:08:38;;;;;;;16.83;9.53;;;;;;;5.81;87.53;99090.22;4958017;28;20221;-71
2021/04/05 10:11:05;;;;;;;18.17;10.30;;;;;;;5.78;88.19;99087.72;4969156;28;20288;-71
2021/04/05 10:13:35;;;;;;;16.17;8.67;;;;;;;5.75;88.26;99076.63;4959385;28;20249;-71
2021/04/05 10:16:04;;;;;;;17.30;9.40;;;;;;;5.67;89.63;99082.88;4965115;28;20271;-70
2021/04/05 10:18:31;;;;;;;22.27;9.83;;;;;;;5.64;90.28;99079.53;4965846;28;20806;-70
2021/04/05 10:20:57;;;;;;;19.80;10.47;;;;;;;5.64;91.96;99071.78;4969345;28;20913;-70
2021/04/05 10:23:30;;;;;;;18.07;9.67;;;;;;;5.64;92.93;99079.53;4968467;28;20201;-70
2021/04/05 10:25:59;;;;;;;16.23;9.27;;;;;;;5.59;93.00;99079.66;4960506;28;20803;-71
2021/04/05 10:28:29;;;;;;;17.17;9.57;;;;;;;5.58;93.91;99078.00;4970618;28;20218;-71
2021/04/05 10:30:58;;;;;;;24.67;10.70;;;;;;;5.56;94.75;99071.16;4967769;28;20293;-71
2021/04/05 10:33:29;;;;;;;20.80;9.93;;;;;;;5.51;94.60;99081.66;4947865;28;20190;-70
2021/04/05 10:35:59;;;;;;;17.23;9.67;;;;;;;5.44;95.44;99072.41;4966468;28;20190;-70
2021/04/05 10:38:29;;;;;;;18.40;9.83;;;;;;;5.33;95.41;99083.06;4967621;28;20232;-71
2021/04/05 10:40:56;;;;;;;18.43;9.80;;;;;;;5.30;96.89;99078.81;4969678;28;20326;-70
2021/04/05 10:43:26;;;;;;;19.67;10.33;;;;;;;5.34;97.61;99082.16;4964939;28;20205;-70
2021/04/05 10:46:06;;;;;;;15.27;9.43;;;;;;;5.25;96.94;99078.09;4966330;28;20209;-70
2021/04/05 10:48:41;;;;;;;20.93;9.30;;;;;;;5.31;99.24;99074.47;4965452;28;20592;-70
2021/04/05 10:51:12;;;;;;;15.13;9.20;;;;;;;5.20;98.13;99073.97;4965503;28;20207;-70
2021/04/05 10:53:43;;;;;;;17.57;10.00;;;;;;;5.19;99.12;99074.84;4964218;28;20288;-70
2021/04/05 10:56:11;;;;;;;16.43;8.53;;;;;;;5.13;98.63;99074.13;4972581;28;20733;-70
2021/04/05 10:58:49;;;;;;;19.00;10.00;;;;;;;5.12;98.94;99067.28;4965249;28;20602;-70
2021/04/05 11:01:17;;;;;;;15.63;9.10;;;;;;;5.11;98.91;99064.72;4965185;28;20194;-70
2021/04/05 11:03:47;;;;;;;15.33;8.40;;;;;;;5.06;98.63;99064.00;4962460;28;20260;-70
2021/04/05 11:06:16;;;;;;;15.73;8.70;;;;;;;5.11;99.87;99065.56;4961443;28;20209;-70
2021/04/05 11:08:47;;;;;;;17.50;8.50;;;;;;;5.07;99.23;99058.81;4965192;28;20261;-70
2021/04/05 11:11:16;;;;;;;13.33;8.27;;;;;;;5.03;99.51;99064.97;4959251;28;20550;-70
2021/04/05 11:13:46;;;;;;;14.73;8.77;;;;;;;5.01;99.39;99053.78;4970300;28;20268;-70
2021/04/05 11:16:17;;;;;;;13.87;7.67;;;;;;;5.01;99.31;99060.72;4966024;28;20209;-70
2021/04/05 11:18:48;;;;;;;19.20;8.90;;;;;;;5.01;99.51;99047.78;4961516;28;20299;-70
2021/04/05 11:21:17;;;;;;;13.57;7.70;;;;;;;5.01;100.00;99061.53;4965332;28;20713;-70
2021/04/05 11:23:45;;;;;;;15.60;8.13;;;;;;;4.92;100.00;99048.91;4969020;28;20208;-70
2021/04/05 11:26:13;;;;;;;13.93;7.40;;;;;;;4.86;100.00;99055.09;4963528;28;20579;-70
2021/04/05 11:28:42;;;;;;;12.87;8.00;;;;;;;4.74;100.00;99107.91;4965378;28;20219;-70
2021/04/05 11:31:11;;;;;;;9.33;4.60;;;;;;;3.86;95.62;99154.78;4960643;28;20237;-70
2021/04/05 11:33:43;;;;;;;3.83;2.50;;;;;;;2.98;95.59;99148.84;4964985;28;20663;-70
2021/04/05 11:36:10;;;;;;;3.40;2.37;;;;;;;2.79;98.33;99158.63;4968862;28;20206;-70
2021/04/05 11:38:44;;;;;;;3.57;2.07;;;;;;;2.69;99.31;99157.94;4963539;28;20225;-70
2021/04/05 11:41:13;;;;;;;1.93;1.53;;;;;;;2.65;100.00;99157.13;4949664;28;20728;-69
2021/04/05 11:43:40;;;;;;;4.00;1.63;;;;;;;2.68;100.00;99174.25;4964931;28;20558;-70
2021/04/05 11:46:09;;;;;;;4.03;1.23;;;;;;;2.64;99.04;99173.47;4965625;28;20205;-69
2021/04/05 11:48:35;;;;;;;1.93;1.33;;;;;;;2.70;100.00;99189.69;4971247;28;20221;-70
2021/04/05 11:51:02;;;;;;;2.13;1.10;;;;;;;2.56;99.06;99198.47;4964960;28;20208;-69
2021/04/05 11:53:34;;;;;;;2.00;0.90;;;;;;;2.47;98.35;99198.63;4972553;28;20206;-69
2021/04/05 11:56:18;;;;;;;1.83;1.20;;;;;;;2.43;99.11;99199.56;4966844;28;20193;-70
2021/04/05 11:58:47;;;;;;;1.37;1.17;;;;;;;2.43;98.86;99200.41;4968011;28;20280;-69